Time;durP1;ratioP1;P1;durP2;ratioP2;P2;SDS_P1;SDS_P2;PMS_P1;PMS_P2;Temp;Humidity;BMP_temperature;BMP_pressure;BME280_temperature;BME280_humidity;BME280_pressure;Samples;Min_cycle;Max_cycle;Signal;HPM_P1;HPM_P2
2022/10/14 00:00:42;;;;;;;10.80;6.43;;;;;;;11.01;100.00;96473.69;5044366;28;20068;-81
2022/10/14 00:03:08;;;;;;;10.85;6.30;;;;;;;11.03;100.00;96475.00;5044382;28;20060;-81
2022/10/14 00:05:39;;;;;;;11.95;6.63;;;;;;;11.01;100.00;96476.44;5045918;28;20041;-81
2022/10/14 00:08:07;;;;;;;12.07;6.93;;;;;;;11.00;100.00;96475.63;5045501;28;20064;-81
2022/10/14 00:10:37;;;;;;;11.32;6.90;;;;;;;11.12;100.00;96467.66;5045435;28;20045;-81
2022/10/14 00:13:03;;;;;;;11.10;6.68;;;;;;;11.14;100.00;96470.84;5044972;28;20113;-80
2022/10/14 00:15:30;;;;;;;12.27;6.50;;;;;;;11.20;100.00;96466.03;5044811;28;20044;-80
2022/10/14 00:17:56;;;;;;;10.25;6.57;;;;;;;11.28;100.00;96475.38;5044575;28;20053;-80
2022/10/14 00:20:23;;;;;;;8.88;6.22;;;;;;;11.39;100.00;96477.47;5044383;28;20038;-81
2022/10/14 00:22:51;;;;;;;11.75;6.45;;;;;;;11.40;100.00;96472.81;5045348;28;20132;-80
2022/10/14 00:25:18;;;;;;;10.98;6.57;;;;;;;11.29;100.00;96472.31;5045287;28;20052;-82
2022/10/14 00:27:44;;;;;;;9.35;6.22;;;;;;;11.33;100.00;96477.91;5044976;28;20060;-80
2022/10/14 00:30:11;;;;;;;8.77;5.82;;;;;;;11.38;100.00;96469.56;5045068;28;20326;-81
2022/10/14 00:32:38;;;;;;;8.90;6.03;;;;;;;11.49;100.00;96471.69;5044885;28;20046;-79
2022/10/14 00:35:06;;;;;;;12.25;6.25;;;;;;;11.46;100.00;96477.78;5044772;28;20057;-80
2022/10/14 00:37:32;;;;;;;10.15;5.38;;;;;;;11.51;100.00;96479.53;5045271;28;20488;-80
2022/10/14 00:40:00;;;;;;;7.75;5.43;;;;;;;11.60;100.00;96482.28;5045359;28;20049;-83
2022/10/14 00:42:27;;;;;;;9.57;6.10;;;;;;;11.59;100.00;96475.19;5027761;28;20045;-83
2022/10/14 00:45:07;;;;;;;10.57;6.18;;;;;;;11.55;100.00;96479.72;5030208;28;20049;-83
2022/10/14 00:47:34;;;;;;;9.13;5.60;;;;;;;11.62;100.00;96474.56;5043303;28;20049;-83
2022/10/14 00:50:00;;;;;;;10.73;5.93;;;;;;;11.67;100.00;96477.13;5050970;28;20045;-82
2022/10/14 00:52:28;;;;;;;8.95;6.18;;;;;;;11.67;100.00;96483.38;5050463;28;20468;-83
2022/10/14 00:55:00;;;;;;;9.50;5.97;;;;;;;11.69;100.00;96478.44;5048323;28;20048;-81
2022/10/14 00:57:29;;;;;;;7.38;5.13;;;;;;;11.74;100.00;96478.25;5046782;28;20041;-83
2022/10/14 01:00:01;;;;;;;9.50;5.70;;;;;;;11.79;100.00;96473.75;5047455;28;20049;-82
2022/10/14 01:02:27;;;;;;;7.78;5.28;;;;;;;11.84;100.00;96470.88;5046444;28;20117;-80
2022/10/14 01:04:54;;;;;;;8.52;5.30;;;;;;;11.87;100.00;96472.97;5044897;28;20107;-81
2022/10/14 01:07:34;;;;;;;9.52;5.30;;;;;;;11.86;100.00;96472.19;5046035;28;20049;-81
2022/10/14 01:10:08;;;;;;;8.50;5.10;;;;;;;11.86;100.00;96468.66;5044736;28;20060;-81
2022/10/14 01:12:48;;;;;;;9.43;5.20;;;;;;;11.84;100.00;96471.69;5042738;28;20045;-82
2022/10/14 01:15:22;;;;;;;7.22;5.13;;;;;;;11.84;100.00;96477.13;5046302;28;20427;-81
2022/10/14 01:18:08;;;;;;;10.07;5.20;;;;;;;11.87;100.00;96481.97;5046672;28;20049;-81
2022/10/14 01:20:57;;;;;;;7.82;4.93;;;;;;;11.82;100.00;96473.94;5046421;28;20041;-82
2022/10/14 01:23:47;;;;;;;8.23;4.80;;;;;;;11.73;100.00;96465.72;5047651;28;20041;-82
2022/10/14 01:26:29;;;;;;;9.68;5.28;;;;;;;11.79;100.00;96462.84;5026754;28;20068;-83
2022/10/14 01:29:12;;;;;;;7.40;5.13;;;;;;;11.79;100.00;96465.56;5050998;28;20049;-84
2022/10/14 01:31:45;;;;;;;8.52;5.35;;;;;;;11.85;100.00;96467.03;5029505;28;20049;-81
2022/10/14 01:34:17;;;;;;;9.93;5.40;;;;;;;11.75;100.00;96463.50;5041885;28;20450;-81
2022/10/14 01:36:48;;;;;;;9.98;5.35;;;;;;;11.73;100.00;96460.25;5040999;28;20506;-80
2022/10/14 01:39:20;;;;;;;7.00;5.05;;;;;;;11.79;100.00;96468.28;5040540;28;20060;-80
2022/10/14 01:41:51;;;;;;;7.43;4.85;;;;;;;11.79;100.00;96462.84;5038011;28;20045;-80
2022/10/14 01:44:22;;;;;;;10.40;5.95;;;;;;;11.77;100.00;96466.69;5039633;28;20531;-80
2022/10/14 01:46:54;;;;;;;6.38;4.82;;;;;;;11.79;100.00;96465.56;5039412;28;20589;-80
2022/10/14 01:49:27;;;;;;;7.05;5.30;;;;;;;11.86;100.00;96463.19;5038755;28;20051;-80
2022/10/14 01:51:59;;;;;;;7.95;5.63;;;;;;;11.88;100.00;96463.66;5040205;28;20393;-80
2022/10/14 01:54:31;;;;;;;6.93;4.90;;;;;;;11.89;100.00;96463.31;5039650;28;20048;-80
2022/10/14 01:57:02;;;;;;;6.75;4.90;;;;;;;11.89;100.00;96459.78;5039934;28;20052;-81
2022/10/14 01:59:31;;;;;;;7.55;5.15;;;;;;;11.93;100.00;96463.50;5040296;28;20403;-81
2022/10/14 02:01:59;;;;;;;12.80;6.20;;;;;;;11.93;100.00;96463.50;5037970;28;20069;-80
2022/10/14 02:04:25;;;;;;;8.80;5.72;;;;;;;11.86;100.00;96457.72;5038078;28;20042;-82
2022/10/14 02:07:02;;;;;;;9.45;6.00;;;;;;;11.84;100.00;96455.31;5040307;28;20049;-82
2022/10/14 02:09:38;;;;;;;7.70;5.30;;;;;;;11.85;100.00;96453.38;5039479;28;20480;-82
2022/10/14 02:12:18;;;;;;;7.70;5.20;;;;;;;11.89;100.00;96452.41;5039982;28;20069;-81
2022/10/14 02:14:53;;;;;;;7.72;5.22;;;;;;;11.91;100.00;96460.28;5041495;28;20041;-80
2022/10/14 02:17:26;;;;;;;10.38;5.95;;;;;;;11.90;100.00;96453.22;5039949;28;20053;-81
2022/10/14 02:20:01;;;;;;;9.20;6.07;;;;;;;11.86;100.00;96452.28;5040212;28;20522;-81
2022/10/14 02:22:32;;;;;;;11.38;6.82;;;;;;;11.85;100.00;96456.09;5038420;28;20049;-83
2022/10/14 02:25:04;;;;;;;11.32;7.70;;;;;;;11.75;100.00;96451.78;5041516;28;20045;-83
2022/10/14 02:27:33;;;;;;;10.25;7.30;;;;;;;11.76;100.00;96447.94;5040728;28;20046;-81
2022/10/14 02:30:01;;;;;;;11.02;7.45;;;;;;;11.77;100.00;96447.59;5040042;28;20535;-82
2022/10/14 02:32:30;;;;;;;11.48;7.10;;;;;;;11.80;100.00;96448.06;5039221;28;20038;-81
2022/10/14 02:35:00;;;;;;;14.98;7.80;;;;;;;11.77;100.00;96450.31;5039070;28;20045;-84
2022/10/14 02:37:29;;;;;;;10.32;7.07;;;;;;;11.85;100.00;96450.66;5038624;28;20458;-81
2022/10/14 02:40:00;;;;;;;12.05;7.10;;;;;;;11.76;100.00;96458.84;5039275;28;20100;-80
2022/10/14 02:42:27;;;;;;;11.00;6.93;;;;;;;11.62;100.00;96459.00;5033417;28;20048;-81
2022/10/14 02:44:55;;;;;;;12.23;7.13;;;;;;;11.60;100.00;96463.19;5040460;28;20061;-81
2022/10/14 02:47:22;;;;;;;11.95;7.28;;;;;;;11.66;100.00;96459.97;5041088;28;20103;-82
2022/10/14 02:49:50;;;;;;;13.00;7.13;;;;;;;11.59;100.00;96454.19;5043329;28;20500;-81
2022/10/14 02:52:17;;;;;;;14.07;7.70;;;;;;;11.48;100.00;96453.72;5043500;28;20045;-81
2022/10/14 02:54:44;;;;;;;11.05;6.47;;;;;;;11.56;100.00;96459.50;5042311;28;20156;-82
2022/10/14 02:57:11;;;;;;;11.15;6.85;;;;;;;11.66;100.00;96456.44;5042030;28;20052;-81
2022/10/14 02:59:38;;;;;;;13.55;7.65;;;;;;;11.58;100.00;96466.22;5042854;28;20038;-80
2022/10/14 03:02:06;;;;;;;14.90;8.18;;;;;;;11.59;100.00;96453.38;5042312;28;20053;-80
2022/10/14 03:04:32;;;;;;;13.90;7.65;;;;;;;11.49;100.00;96455.31;5041007;28;20049;-80
2022/10/14 03:07:01;;;;;;;13.73;8.18;;;;;;;11.45;100.00;96462.53;5042474;28;20081;-80
2022/10/14 03:09:27;;;;;;;14.23;7.45;;;;;;;11.53;100.00;96460.91;5041978;28;20046;-81
2022/10/14 03:11:54;;;;;;;12.10;8.13;;;;;;;11.60;100.00;96455.00;5040881;28;20041;-81
2022/10/14 03:14:21;;;;;;;13.63;8.75;;;;;;;11.47;100.00;96454.03;5041113;28;20046;-81
2022/10/14 03:16:47;;;;;;;17.88;9.45;;;;;;;11.52;100.00;96451.13;5044030;28;20053;-83
2022/10/14 03:19:14;;;;;;;16.13;8.73;;;;;;;11.47;100.00;96467.66;5044505;28;20046;-83
2022/10/14 03:21:41;;;;;;;14.32;9.35;;;;;;;11.43;100.00;96470.25;5043623;28;20046;-82
2022/10/14 03:24:10;;;;;;;16.02;9.27;;;;;;;11.37;100.00;96468.78;5043984;28;20056;-83
2022/10/14 03:26:37;;;;;;;14.85;8.95;;;;;;;11.33;100.00;96467.84;5042429;28;20045;-80
2022/10/14 03:29:03;;;;;;;14.93;8.90;;;;;;;11.35;100.00;96462.06;5042787;28;20507;-83
2022/10/14 03:31:30;;;;;;;17.15;8.85;;;;;;;11.40;100.00;96459.97;5040716;28;20041;-79
2022/10/14 03:33:56;;;;;;;16.95;8.60;;;;;;;11.42;100.00;96459.63;5039378;28;20051;-82
2022/10/14 03:36:23;;;;;;;12.20;8.18;;;;;;;11.35;100.00;96460.13;5042166;28;20476;-82
2022/10/14 03:38:49;;;;;;;21.10;8.95;;;;;;;11.19;100.00;96461.72;5043796;28;20045;-81
2022/10/14 03:41:17;;;;;;;14.57;8.50;;;;;;;11.30;100.00;96457.56;5043067;28;20053;-81
2022/10/14 03:43:44;;;;;;;15.38;8.60;;;;;;;11.21;100.00;96460.25;5040926;28;20046;-82
2022/10/14 03:46:10;;;;;;;12.88;8.52;;;;;;;11.24;100.00;96456.13;5039023;28;20136;-81
2022/10/14 03:48:37;;;;;;;17.60;8.32;;;;;;;11.29;100.00;96457.88;5040409;28;20511;-80
2022/10/14 03:51:04;;;;;;;11.68;7.60;;;;;;;11.36;100.00;96456.28;5039847;28;20049;-81
2022/10/14 03:53:30;;;;;;;14.18;7.72;;;;;;;11.30;100.00;96460.28;5039787;28;20073;-80
2022/10/14 03:55:57;;;;;;;14.63;8.18;;;;;;;11.25;100.00;96454.97;5038751;28;20045;-82
2022/10/14 03:58:25;;;;;;;14.68;7.88;;;;;;;11.26;100.00;96459.31;5039584;28;20056;-81
2022/10/14 04:00:51;;;;;;;13.77;8.35;;;;;;;11.17;100.00;96453.88;5046007;28;20037;-83
2022/10/14 04:03:18;;;;;;;11.25;7.97;;;;;;;11.14;100.00;96451.78;5047626;28;20049;-83
2022/10/14 04:05:44;;;;;;;12.48;7.85;;;;;;;11.05;100.00;96456.41;5048656;28;20073;-83
2022/10/14 04:08:11;;;;;;;17.38;8.13;;;;;;;11.06;100.00;96458.00;5047787;28;20045;-82
2022/10/14 04:10:38;;;;;;;15.13;8.55;;;;;;;11.12;100.00;96451.31;5042345;28;20069;-80
2022/10/14 04:13:04;;;;;;;14.35;8.20;;;;;;;11.07;100.00;96451.44;5021242;28;20052;-81
2022/10/14 04:15:34;;;;;;;14.40;7.88;;;;;;;11.17;100.00;96453.88;5021469;28;20041;-81
2022/10/14 04:18:01;;;;;;;13.55;7.47;;;;;;;11.14;100.00;96451.78;5022028;28;20046;-82
2022/10/14 04:20:27;;;;;;;12.82;7.68;;;;;;;11.18;100.00;96444.56;5022399;28;20048;-82
2022/10/14 04:22:54;;;;;;;15.02;7.80;;;;;;;11.09;100.00;96438.28;5026958;28;20068;-80
2022/10/14 04:25:20;;;;;;;12.48;7.60;;;;;;;11.24;100.00;96442.47;5039493;28;20050;-80
2022/10/14 04:27:47;;;;;;;13.95;7.53;;;;;;;11.30;100.00;96440.41;5041187;28;20054;-80
2022/10/14 04:30:13;;;;;;;12.32;6.53;;;;;;;11.35;100.00;96442.97;5039812;28;20048;-81
2022/10/14 04:32:41;;;;;;;9.70;6.45;;;;;;;11.43;100.00;96428.50;5041204;28;20536;-82
2022/10/14 04:35:09;;;;;;;10.40;6.72;;;;;;;11.47;100.00;96424.03;5041408;28;20049;-82
2022/10/14 04:37:36;;;;;;;12.05;6.55;;;;;;;11.52;100.00;96432.06;5046337;28;20045;-81
2022/10/14 04:40:02;;;;;;;11.38;6.03;;;;;;;11.56;100.00;96433.00;5046938;28;20109;-82
2022/10/14 04:42:29;;;;;;;14.82;6.90;;;;;;;11.57;100.00;96429.16;5045627;28;20073;-83
2022/10/14 04:44:56;;;;;;;11.43;7.05;;;;;;;11.56;100.00;96438.47;5043728;28;20061;-83
2022/10/14 04:47:22;;;;;;;12.80;8.63;;;;;;;11.57;100.00;96428.34;5043146;28;20053;-82
2022/10/14 04:49:50;;;;;;;10.40;6.70;;;;;;;11.61;100.00;96427.41;5042629;28;20053;-80
2022/10/14 04:52:17;;;;;;;9.65;6.57;;;;;;;11.63;100.00;96427.88;5041982;28;20053;-81
2022/10/14 04:54:43;;;;;;;9.77;6.20;;;;;;;11.67;100.00;96419.84;5043316;28;20048;-82
2022/10/14 04:57:10;;;;;;;11.43;6.82;;;;;;;11.64;100.00;96421.31;5042746;28;20049;-82
2022/10/14 04:59:36;;;;;;;9.95;6.13;;;;;;;11.68;100.00;96424.97;5042447;28;20045;-80
2022/10/14 05:02:03;;;;;;;8.23;5.55;;;;;;;11.72;100.00;96425.94;5042439;28;20072;-80
2022/10/14 05:04:30;;;;;;;8.88;5.80;;;;;;;11.75;100.00;96419.03;5041558;28;20046;-81
2022/10/14 05:06:58;;;;;;;14.35;7.35;;;;;;;11.77;100.00;96411.31;5040515;28;20052;-79
2022/10/14 05:09:24;;;;;;;12.13;7.32;;;;;;;11.75;100.00;96403.47;5040396;28;20048;-82
2022/10/14 05:11:51;;;;;;;10.18;6.78;;;;;;;11.76;100.00;96409.72;5038419;28;20475;-79
2022/10/14 05:14:17;;;;;;;11.55;7.88;;;;;;;11.75;100.00;96403.47;5027657;28;20042;-80
2022/10/14 05:16:44;;;;;;;10.60;6.80;;;;;;;11.71;100.00;96399.78;5018890;28;20041;-79
2022/10/14 05:19:10;;;;;;;10.80;6.60;;;;;;;11.75;100.00;96399.94;5019748;28;20046;-80
2022/10/14 05:21:37;;;;;;;11.05;7.40;;;;;;;11.79;100.00;96408.25;5027132;28;20042;-81
2022/10/14 05:24:06;;;;;;;15.40;7.30;;;;;;;11.76;100.00;96405.06;5040003;28;20129;-80
2022/10/14 05:26:33;;;;;;;10.07;6.18;;;;;;;11.84;100.00;96405.41;5038183;28;20348;-85
2022/10/14 05:28:59;;;;;;;13.10;7.50;;;;;;;11.76;100.00;96396.88;5020915;28;20054;-83
2022/10/14 05:31:26;;;;;;;9.60;6.72;;;;;;;11.79;100.00;96397.34;5024211;28;20041;-82
2022/10/14 05:33:52;;;;;;;9.82;6.68;;;;;;;11.82;100.00;96394.03;5043135;28;20050;-83
2022/10/14 05:36:19;;;;;;;12.02;7.15;;;;;;;11.83;100.00;96398.34;5042486;28;20052;-82
2022/10/14 05:38:49;;;;;;;13.02;6.90;;;;;;;11.76;100.00;96393.34;5042306;28;20045;-82
2022/10/14 05:41:17;;;;;;;13.23;6.47;;;;;;;11.71;100.00;96402.50;5038382;28;20072;-81
2022/10/14 05:43:43;;;;;;;10.30;6.47;;;;;;;11.72;100.00;96398.66;5042715;28;20049;-82
2022/10/14 05:46:10;;;;;;;12.80;6.03;;;;;;;11.72;100.00;96404.09;5041548;28;20060;-81
2022/10/14 05:48:37;;;;;;;11.50;7.30;;;;;;;11.69;100.00;96393.88;5040419;28;20045;-81
2022/10/14 05:51:03;;;;;;;10.27;6.13;;;;;;;11.71;100.00;96397.06;5042980;28;20694;-83
2022/10/14 05:53:31;;;;;;;18.02;7.63;;;;;;;11.72;100.00;96401.38;5042742;28;20112;-83
2022/10/14 05:56:01;;;;;;;10.15;6.22;;;;;;;11.74;100.00;96396.44;5044729;28;20526;-84
2022/10/14 05:58:29;;;;;;;20.83;7.25;;;;;;;11.71;100.00;96391.59;5045448;28;20052;-78
2022/10/14 06:00:59;;;;;;;10.75;7.20;;;;;;;11.71;100.00;96390.81;5038753;28;20049;-77
2022/10/14 06:03:26;;;;;;;11.38;6.90;;;;;;;11.71;100.00;96391.59;5039911;28;20097;-77
2022/10/14 06:05:52;;;;;;;9.85;6.25;;;;;;;11.66;100.00;96388.25;5039650;28;20071;-78
2022/10/14 06:08:19;;;;;;;14.65;6.63;;;;;;;11.62;100.00;96393.53;5039503;28;20050;-78
2022/10/14 06:10:46;;;;;;;11.98;5.97;;;;;;;11.68;100.00;96386.78;5041776;28;20065;-79
2022/10/14 06:13:13;;;;;;;11.13;6.45;;;;;;;11.74;100.00;96385.50;5036196;28;20045;-78
2022/10/14 06:15:41;;;;;;;11.05;5.78;;;;;;;11.76;100.00;96385.97;5038708;28;20535;-80
2022/10/14 06:18:07;;;;;;;10.85;6.18;;;;;;;11.83;100.00;96392.88;5036431;28;20403;-77
2022/10/14 06:20:34;;;;;;;11.27;5.65;;;;;;;11.73;100.00;96383.88;5024323;28;20438;-80
2022/10/14 06:23:01;;;;;;;12.57;6.38;;;;;;;11.70;100.00;96390.00;5040038;28;20050;-79
2022/10/14 06:25:27;;;;;;;10.75;6.00;;;;;;;11.66;100.00;96389.03;5042187;28;20053;-79
2022/10/14 06:27:54;;;;;;;10.68;6.18;;;;;;;11.74;100.00;96382.78;5042884;28;20077;-78
2022/10/14 06:30:21;;;;;;;9.95;6.10;;;;;;;11.76;100.00;96382.44;5040179;28;20041;-78
2022/10/14 06:32:52;;;;;;;7.35;4.70;;;;;;;11.81;100.00;96389.66;5041722;28;20045;-80
2022/10/14 06:35:19;;;;;;;8.85;5.70;;;;;;;11.84;100.00;96386.31;5041332;28;20511;-80
2022/10/14 06:37:45;;;;;;;10.65;5.85;;;;;;;11.85;100.00;96379.72;5042064;28;20060;-79
2022/10/14 06:40:12;;;;;;;9.07;5.57;;;;;;;11.95;100.00;96388.38;5041205;28;20061;-78
2022/10/14 06:42:39;;;;;;;8.75;5.07;;;;;;;11.99;100.00;96391.22;5036636;28;20042;-79
2022/10/14 06:45:07;;;;;;;9.88;5.63;;;;;;;12.02;100.00;96391.41;5043909;28;20053;-81
2022/10/14 06:47:33;;;;;;;10.25;6.20;;;;;;;12.04;100.00;96391.06;5044458;28;20435;-79
2022/10/14 06:50:01;;;;;;;13.52;6.32;;;;;;;12.08;100.00;96394.75;5040840;28;20049;-79
2022/10/14 06:52:28;;;;;;;8.52;6.05;;;;;;;12.10;100.00;96392.47;5041429;28;20073;-78
2022/10/14 06:54:55;;;;;;;11.15;6.72;;;;;;;12.19;100.00;96400.66;5043438;28;20112;-77
2022/10/14 06:57:21;;;;;;;13.10;5.93;;;;;;;12.16;100.00;96396.66;5040648;28;20053;-78
2022/10/14 06:59:48;;;;;;;10.63;6.18;;;;;;;12.26;100.00;96396.25;5042857;28;20421;-77
2022/10/14 07:02:14;;;;;;;10.32;6.00;;;;;;;12.35;100.00;96403.63;5037578;28;20484;-78
2022/10/14 07:04:41;;;;;;;8.40;5.97;;;;;;;12.34;100.00;96400.09;5040071;28;20492;-77
2022/10/14 07:07:09;;;;;;;8.52;5.45;;;;;;;12.41;100.00;96403.13;5042994;28;20058;-78
2022/10/14 07:09:36;;;;;;;8.38;5.40;;;;;;;12.47;100.00;96393.59;5044791;28;20046;-78
2022/10/14 07:12:03;;;;;;;12.25;6.05;;;;;;;12.28;100.00;96393.22;5040323;28;20044;-79
2022/10/14 07:14:29;;;;;;;11.77;5.50;;;;;;;12.21;100.00;96387.47;5034619;28;20044;-80
2022/10/14 07:16:57;;;;;;;8.25;5.20;;;;;;;12.31;100.00;96391.75;5032550;28;20057;-81
2022/10/14 07:19:23;;;;;;;8.40;5.03;;;;;;;12.38;100.00;96392.88;5033117;28;20103;-78
2022/10/14 07:21:50;;;;;;;7.50;4.57;;;;;;;12.45;100.00;96393.13;5041340;28;20045;-80
2022/10/14 07:24:18;;;;;;;9.25;5.40;;;;;;;12.42;100.00;96382.06;5023867;28;20060;-78
2022/10/14 07:26:44;;;;;;;8.43;4.85;;;;;;;12.46;100.00;96386.53;5047097;28;20516;-79
2022/10/14 07:29:11;;;;;;;10.90;5.55;;;;;;;12.47;100.00;96382.69;5048169;28;20046;-80
2022/10/14 07:31:38;;;;;;;8.63;5.13;;;;;;;12.50;100.00;96387.50;5046812;28;20049;-79
2022/10/14 07:34:04;;;;;;;12.63;4.97;;;;;;;12.40;100.00;96379.66;5044924;28;20117;-79
2022/10/14 07:36:31;;;;;;;9.90;4.60;;;;;;;12.50;100.00;96383.97;5029890;28;20048;-80
2022/10/14 07:38:57;;;;;;;10.77;5.13;;;;;;;12.59;100.00;96382.00;5028193;28;20048;-80
2022/10/14 07:41:25;;;;;;;8.68;5.45;;;;;;;12.57;100.00;96384.25;5045165;28;20052;-79
2022/10/14 07:43:54;;;;;;;15.13;6.05;;;;;;;12.67;100.00;96383.06;5038730;28;20045;-79
2022/10/14 07:46:28;;;;;;;8.98;5.22;;;;;;;12.68;100.00;96380.00;5041968;28;20049;-79
2022/10/14 07:48:55;;;;;;;10.60;5.55;;;;;;;12.68;100.00;96380.00;5031045;28;20544;-81
2022/10/14 07:51:22;;;;;;;10.05;4.97;;;;;;;12.67;100.00;96383.84;5041623;28;20069;-79
2022/10/14 07:53:49;;;;;;;8.40;5.13;;;;;;;12.64;100.00;96386.47;5042073;28;20053;-79
2022/10/14 07:56:15;;;;;;;6.70;4.03;;;;;;;12.62;100.00;96380.53;5041572;28;20510;-77
2022/10/14 07:58:45;;;;;;;9.63;4.97;;;;;;;12.74;100.00;96383.34;5041347;28;20041;-80
2022/10/14 08:01:14;;;;;;;8.23;4.47;;;;;;;12.79;100.00;96386.69;5040604;28;20683;-79
2022/10/14 08:03:40;;;;;;;8.70;3.85;;;;;;;12.74;100.00;96380.63;5045644;28;20615;-77
2022/10/14 08:06:07;;;;;;;6.55;3.95;;;;;;;12.71;100.00;96379.34;5044644;28;20045;-77
2022/10/14 08:08:34;;;;;;;6.03;3.90;;;;;;;12.73;100.00;96385.25;5040673;28;20055;-78
2022/10/14 08:11:02;;;;;;;7.68;4.43;;;;;;;12.82;100.00;96378.97;5034972;28;20080;-79
2022/10/14 08:13:29;;;;;;;7.57;5.20;;;;;;;12.92;100.00;96384.84;5039592;28;20049;-80
2022/10/14 08:15:57;;;;;;;8.75;4.13;;;;;;;12.87;100.00;96381.50;5041616;28;20052;-78
2022/10/14 08:18:24;;;;;;;7.25;3.97;;;;;;;12.95;100.00;96383.38;5040256;28;20609;-79
2022/10/14 08:20:51;;;;;;;6.60;4.43;;;;;;;12.97;100.00;96384.63;5040026;28;20053;-80
2022/10/14 08:23:18;;;;;;;8.93;4.15;;;;;;;13.13;100.00;96382.09;5040934;28;20045;-80
2022/10/14 08:25:46;;;;;;;6.43;4.32;;;;;;;13.19;100.00;96388.19;5031515;28;20052;-78
2022/10/14 08:28:13;;;;;;;7.40;4.50;;;;;;;13.43;100.00;96382.06;5037910;28;20059;-78
2022/10/14 08:30:39;;;;;;;7.28;4.03;;;;;;;13.56;98.98;96383.69;5038850;28;20052;-78
2022/10/14 08:33:07;;;;;;;6.88;3.97;;;;;;;13.61;100.00;96386.22;5040611;28;20045;-79
2022/10/14 08:35:34;;;;;;;6.60;3.47;;;;;;;13.78;97.47;96372.38;5040868;28;20515;-79
2022/10/14 08:38:02;;;;;;;4.88;3.30;;;;;;;13.90;96.06;96373.56;5041662;28;20075;-79
2022/10/14 08:40:30;;;;;;;5.85;3.03;;;;;;;13.92;94.65;96374.81;5042060;28;20124;-78
2022/10/14 08:43:01;;;;;;;5.60;3.08;;;;;;;13.89;90.99;96378.25;5037782;28;20099;-79
2022/10/14 08:45:33;;;;;;;4.75;3.10;;;;;;;13.95;91.49;96370.59;5019971;28;20100;-78
2022/10/14 08:48:04;;;;;;;8.40;2.83;;;;;;;14.04;92.57;96374.84;5036204;28;20057;-77
2022/10/14 08:50:38;;;;;;;5.63;2.75;;;;;;;14.13;93.98;96366.50;5035439;28;20400;-78
2022/10/14 08:53:10;;;;;;;6.15;3.00;;;;;;;14.27;94.52;96358.78;5023628;28;20041;-78
2022/10/14 08:55:39;;;;;;;5.13;3.15;;;;;;;14.41;95.79;96361.19;5036541;28;20046;-78
2022/10/14 08:58:12;;;;;;;6.25;3.38;;;;;;;14.59;95.74;96368.06;5035510;28;20056;-77
2022/10/14 09:00:40;;;;;;;;;;;;;;;14.54;89.85;96362.00;5036673;28;20510;-80
2022/10/14 09:03:15;;;;;;;4.68;2.95;;;;;;;14.76;91.99;96366.22;5035550;28;19925;-79
2022/10/14 09:05:44;;;;;;;4.35;3.00;;;;;;;14.55;88.39;96367.13;5018328;28;20049;-79
2022/10/14 09:08:16;;;;;;;4.13;2.78;;;;;;;14.71;89.41;96369.19;5015385;28;20046;-79
2022/10/14 09:10:44;;;;;;;7.28;3.35;;;;;;;14.73;88.99;96367.72;5019366;28;20049;-80
2022/10/14 09:13:16;;;;;;;6.18;2.58;;;;;;;14.74;86.06;96374.78;5033354;28;20045;-78
2022/10/14 09:15:44;;;;;;;4.97;2.67;;;;;;;14.69;85.30;96366.78;5034636;28;20116;-78
2022/10/14 09:18:22;;;;;;;3.78;2.25;;;;;;;14.78;84.36;96370.22;5034403;28;20408;-79
2022/10/14 09:20:51;;;;;;;3.97;2.05;;;;;;;14.96;85.70;96369.94;5034406;28;20045;-79
2022/10/14 09:23:19;;;;;;;7.10;2.38;;;;;;;14.90;85.41;96361.16;5033918;28;20052;-78
2022/10/14 09:25:55;;;;;;;4.90;1.80;;;;;;;14.62;80.08;96363.84;5035388;28;20397;-79
2022/10/14 09:28:29;;;;;;;3.08;1.80;;;;;;;14.88;82.21;96358.00;5033864;28;20900;-78
2022/10/14 09:30:56;;;;;;;4.47;1.77;;;;;;;14.95;80.98;96355.44;5034086;28;20169;-79
2022/10/14 09:33:26;;;;;;;2.75;1.80;;;;;;;15.15;83.70;96356.44;5033415;28;20041;-79
2022/10/14 09:35:56;;;;;;;2.38;1.85;;;;;;;15.22;83.48;96351.16;5032836;28;20042;-78
2022/10/14 09:38:24;;;;;;;1.90;1.45;;;;;;;15.33;81.82;96352.25;5032325;28;20110;-78
2022/10/14 09:40:54;;;;;;;3.50;1.40;;;;;;;15.44;80.45;96351.75;5030143;28;20114;-78
2022/10/14 09:43:23;;;;;;;3.53;1.80;;;;;;;15.40;79.81;96346.19;5036396;28;20048;-79
2022/10/14 09:45:53;;;;;;;5.35;1.48;;;;;;;15.45;75.63;96353.34;5038984;28;20048;-78
2022/10/14 09:48:31;;;;;;;4.10;1.60;;;;;;;15.41;75.44;96347.78;5031325;28;20394;-78
2022/10/14 09:51:01;;;;;;;3.17;1.63;;;;;;;15.65;77.84;96352.38;5037495;28;20099;-78
2022/10/14 09:53:30;;;;;;;2.83;1.27;;;;;;;15.80;77.65;96346.13;5040634;28;20047;-77
2022/10/14 09:55:58;;;;;;;3.50;1.50;;;;;;;15.88;72.34;96342.41;5040642;28;20054;-78
2022/10/14 09:58:31;;;;;;;2.80;1.40;;;;;;;15.88;74.83;96339.69;5040026;28;20048;-79
2022/10/14 10:01:00;;;;;;;3.58;1.40;;;;;;;16.12;74.89;96343.41;5038015;28;20068;-79
2022/10/14 10:03:28;;;;;;;4.80;1.95;;;;;;;16.29;76.70;96343.06;5037991;28;20057;-80
2022/10/14 10:06:06;;;;;;;2.42;1.52;;;;;;;16.18;70.22;96341.97;5038841;28;20049;-78
2022/10/14 10:08:34;;;;;;;3.17;1.40;;;;;;;16.17;71.55;96340.41;5037804;28;20044;-77
2022/10/14 10:11:03;;;;;;;1.67;1.33;;;;;;;16.41;73.08;96334.72;5037314;28;20053;-80
2022/10/14 10:13:38;;;;;;;2.33;1.30;;;;;;;16.50;72.81;96331.00;5036821;28;20095;-78
2022/10/14 10:16:06;;;;;;;3.65;1.60;;;;;;;16.41;73.54;96331.97;5036812;28;20730;-78
2022/10/14 10:18:33;;;;;;;3.47;1.30;;;;;;;16.35;70.99;96338.91;5035679;28;20052;-79
2022/10/14 10:21:05;;;;;;;2.80;1.48;;;;;;;16.55;72.95;96334.28;5035630;28;20053;-78
2022/10/14 10:23:34;;;;;;;4.53;1.65;;;;;;;16.52;71.16;96334.97;5035915;28;20052;-77
2022/10/14 10:26:16;;;;;;;4.32;1.40;;;;;;;16.60;72.52;96333.19;5038556;28;20045;-84
2022/10/14 10:28:47;;;;;;;3.88;1.40;;;;;;;16.39;70.60;96334.28;5041117;28;20045;-81
2022/10/14 10:31:31;;;;;;;1.90;1.42;;;;;;;16.54;72.70;96313.41;5038309;28;20076;-82
2022/10/14 10:34:11;;;;;;;2.88;1.42;;;;;;;16.64;71.44;96320.31;5038488;28;20061;-81
2022/10/14 10:36:47;;;;;;;3.92;1.55;;;;;;;16.60;69.85;96319.44;5037350;28;20044;-81
2022/10/14 10:39:23;;;;;;;4.20;1.42;;;;;;;16.74;72.05;96317.03;5038657;28;20077;-81
2022/10/14 10:41:59;;;;;;;2.67;1.20;;;;;;;16.74;70.46;96317.03;5038078;28;20076;-80
2022/10/14 10:44:46;;;;;;;1.75;0.98;;;;;;;16.84;69.28;96313.72;5036083;28;20048;-81
2022/10/14 10:47:31;;;;;;;3.55;1.30;;;;;;;16.94;70.55;96307.66;5034437;28;20507;-81
2022/10/14 10:50:16;;;;;;;3.67;1.30;;;;;;;16.68;66.47;96304.69;5035583;28;20053;-81
2022/10/14 10:52:55;;;;;;;4.88;1.50;;;;;;;16.87;67.40;96306.75;5036625;28;20044;-80
2022/10/14 10:55:33;;;;;;;4.00;1.50;;;;;;;16.59;68.05;96295.84;5035969;28;20045;-81
2022/10/14 10:58:11;;;;;;;1.65;1.15;;;;;;;16.69;68.74;96295.28;5035486;28;20447;-81
2022/10/14 11:00:48;;;;;;;1.77;1.05;;;;;;;16.76;68.95;96298.25;5035091;28;20038;-80
2022/10/14 11:03:36;;;;;;;3.13;1.05;;;;;;;16.76;69.41;96301.00;5033529;28;20049;-81
2022/10/14 11:06:07;;;;;;;1.85;1.10;;;;;;;16.40;64.99;96297.41;5037071;28;20060;-81
2022/10/14 11:12:09;;;;;;;2.15;1.40;;;;;;;16.66;69.04;96290.53;5026134;28;20060;-81
2022/10/14 11:14:49;;;;;;;3.92;2.05;;;;;;;16.82;66.55;96283.06;5046350;28;20045;-84
2022/10/14 11:17:25;;;;;;;2.15;1.10;;;;;;;16.90;65.88;96273.78;5049176;28;20064;-82
2022/10/14 11:19:58;;;;;;;1.25;1.05;;;;;;;17.16;67.75;96270.41;5049996;28;20105;-83
2022/10/14 11:22:52;;;;;;;2.03;1.10;;;;;;;17.22;64.79;96268.16;5048991;28;20045;-83
2022/10/14 11:25:33;;;;;;;1.63;1.20;;;;;;;17.36;65.94;96262.94;5046474;28;20045;-81
2022/10/14 11:28:10;;;;;;;2.10;0.90;;;;;;;17.23;63.95;96258.75;5045330;28;20050;-80
2022/10/14 11:30:45;;;;;;;1.80;1.23;;;;;;;17.25;64.04;96256.44;5042768;28;20049;-80
2022/10/14 11:33:36;;;;;;;1.52;1.00;;;;;;;17.50;64.18;96253.34;5042041;28;20057;-80
2022/10/14 11:36:15;;;;;;;3.20;1.00;;;;;;;17.20;56.74;96249.25;5042358;28;20045;-81
2022/10/14 11:38:59;;;;;;;2.13;0.85;;;;;;;17.24;58.53;96243.84;5042543;28;20049;-80